createdAt,value
2018-02-17T00:01:05.700Z,82.80
2018-02-17T00:03:33.419Z,82.20
2018-02-17T00:06:01.068Z,82.20
2018-02-17T00:08:28.730Z,82.00
2018-02-17T00:10:56.339Z,82.10
2018-02-17T00:13:23.990Z,82.10
2018-02-17T00:15:51.621Z,82.00
2018-02-17T00:18:19.287Z,81.90
2018-02-17T00:20:46.925Z,81.90
2018-02-17T00:23:15.351Z,82.10
2018-02-17T00:25:43.018Z,82.00
2018-02-17T00:28:10.632Z,82.20
2018-02-17T00:30:38.311Z,82.20
2018-02-17T00:33:06.726Z,82.40
2018-02-17T00:35:34.440Z,82.40
2018-02-17T00:38:02.081Z,82.50
2018-02-17T00:40:29.701Z,82.50
2018-02-17T00:43:01.981Z,83.10
2018-02-17T00:45:29.612Z,82.70
2018-02-17T00:47:57.263Z,82.70
2018-02-17T00:50:24.896Z,82.70
2018-02-17T00:52:53.306Z,82.70
2018-02-17T00:55:20.935Z,82.70
2018-02-17T00:57:48.615Z,82.80
2018-02-17T01:00:17.092Z,82.70
2018-02-17T01:02:45.506Z,82.70
2018-02-17T01:05:13.159Z,82.70
2018-02-17T01:07:41.546Z,82.80
2018-02-17T01:10:09.986Z,82.80
2018-02-17T01:12:37.670Z,82.80
2018-02-17T01:15:05.288Z,82.80
2018-02-17T01:20:06.888Z,82.80
2018-02-17T01:22:34.579Z,82.80
2018-02-17T01:25:02.944Z,82.80
2018-02-17T01:27:30.593Z,82.80
2018-02-17T01:29:58.227Z,82.80
2018-02-17T01:32:25.896Z,82.70
2018-02-17T01:34:54.329Z,82.60
2018-02-17T01:37:21.965Z,82.60
2018-02-17T01:39:49.588Z,82.60
2018-02-17T01:42:17.209Z,82.70
2018-02-17T01:44:44.885Z,82.60
2018-02-17T01:47:12.494Z,82.70
2018-02-17T01:49:40.134Z,82.70
2018-02-17T01:52:07.779Z,82.70
2018-02-17T01:54:35.400Z,82.60
2018-02-17T01:57:03.056Z,82.70
2018-02-17T01:59:30.708Z,82.60
2018-02-17T02:01:59.105Z,82.70
2018-02-17T02:04:26.749Z,82.70
2018-02-17T02:06:54.371Z,82.60
2018-02-17T02:09:22.783Z,82.80
2018-02-17T02:11:50.446Z,82.80
2018-02-17T02:14:18.118Z,82.80
2018-02-17T02:16:45.742Z,82.80
2018-02-17T02:19:14.163Z,83.00
2018-02-17T02:21:41.765Z,83.00
2018-02-17T02:24:09.385Z,83.00
2018-02-17T02:26:37.039Z,83.00
2018-02-17T02:29:05.420Z,83.10
2018-02-17T02:31:33.051Z,83.10
2018-02-17T02:34:00.680Z,83.10
2018-02-17T02:36:28.356Z,83.10
2018-02-17T02:38:56.129Z,83.10
2018-02-17T02:41:23.764Z,83.10
2018-02-17T02:43:52.191Z,83.20
2018-02-17T02:46:19.804Z,83.20
2018-02-17T02:48:48.217Z,83.30
2018-02-17T02:51:15.844Z,83.10
2018-02-17T02:53:43.502Z,83.10
2018-02-17T02:56:11.134Z,83.10
2018-02-17T02:58:38.781Z,83.10
2018-02-17T03:01:06.413Z,83.00
2018-02-17T03:03:34.146Z,82.80
2018-02-17T03:06:01.809Z,82.70
2018-02-17T03:08:29.438Z,82.60
2018-02-17T03:10:57.101Z,82.60
2018-02-17T03:13:25.478Z,82.70
2018-02-17T03:15:53.888Z,82.70
2018-02-17T03:18:22.468Z,82.60
2018-02-17T03:20:50.908Z,82.60
2018-02-17T03:23:18.560Z,82.60
2018-02-17T03:25:46.194Z,82.50
2018-02-17T03:28:13.827Z,82.50
2018-02-17T03:30:41.459Z,82.60
2018-02-17T03:33:09.144Z,82.50
2018-02-17T03:35:36.748Z,82.40
2018-02-17T03:38:05.175Z,82.50
2018-02-17T03:40:32.816Z,82.50
2018-02-17T03:43:00.483Z,82.70
2018-02-17T03:45:28.152Z,82.50
2018-02-17T03:47:55.926Z,82.50
2018-02-17T03:50:23.564Z,82.50
2018-02-17T03:52:51.981Z,83.10
2018-02-17T03:55:19.647Z,82.70
2018-02-17T03:57:47.286Z,82.70
2018-02-17T04:00:15.756Z,82.80
2018-02-17T04:02:43.382Z,82.80
2018-02-17T04:05:11.011Z,82.90
2018-02-17T04:07:38.708Z,83.00
2018-02-17T04:10:06.334Z,83.00
2018-02-17T04:12:34.753Z,83.10
2018-02-17T04:15:02.382Z,83.10
2018-02-17T04:17:30.815Z,83.30
2018-02-17T04:19:58.457Z,83.20
2018-02-17T04:22:26.099Z,83.30
2018-02-17T04:24:54.519Z,83.40
2018-02-17T04:27:22.149Z,83.30
2018-02-17T04:29:51.271Z,83.50
2018-02-17T04:32:19.718Z,83.50
2018-02-17T04:34:47.772Z,83.50
2018-02-17T04:37:15.388Z,83.50
2018-02-17T04:39:58.760Z,83.50
2018-02-17T04:42:40.115Z,83.50
2018-02-17T04:45:10.597Z,83.60
2018-02-17T04:47:38.995Z,83.70
2018-02-17T04:50:11.817Z,83.60
2018-02-17T04:52:55.026Z,83.60
2018-02-17T04:55:43.547Z,83.60
2018-02-17T04:58:13.894Z,83.60
2018-02-17T05:00:57.357Z,83.60
2018-02-17T05:03:27.532Z,83.50
2018-02-17T05:05:56.671Z,83.70
2018-02-17T05:08:24.788Z,83.70
2018-02-17T05:10:53.191Z,84.00
2018-02-17T05:13:20.824Z,84.00
2018-02-17T05:15:51.266Z,83.70
2018-02-17T05:18:22.710Z,83.50
2018-02-17T05:20:50.358Z,83.40
2018-02-17T05:23:23.650Z,83.90
2018-02-17T05:26:03.119Z,83.40
2018-02-17T05:28:30.823Z,83.20
2018-02-17T05:30:58.469Z,83.20
2018-02-17T05:33:30.381Z,83.20
2018-02-17T05:36:00.857Z,83.20
2018-02-17T05:38:29.267Z,83.10
2018-02-17T05:40:59.806Z,83.10
2018-02-17T05:43:28.488Z,83.10
2018-02-17T05:46:14.778Z,83.10
2018-02-17T05:48:45.174Z,83.10
2018-02-17T05:51:13.571Z,83.10
2018-02-17T05:53:41.978Z,83.20
2018-02-17T05:56:10.502Z,83.20
2018-02-17T05:58:38.109Z,83.20
2018-02-17T06:01:06.543Z,83.10
2018-02-17T06:03:34.201Z,83.10
2018-02-17T06:06:01.855Z,83.10
2018-02-17T06:08:29.489Z,83.20
2018-02-17T06:10:57.911Z,83.40
2018-02-17T06:13:25.585Z,83.40
2018-02-17T06:15:53.218Z,83.50
2018-02-17T06:18:20.870Z,83.50
2018-02-17T06:20:49.261Z,83.40
2018-02-17T06:23:16.907Z,83.40
2018-02-17T06:25:44.531Z,83.40
2018-02-17T06:28:12.180Z,83.40
2018-02-17T06:30:39.814Z,83.40
2018-02-17T06:33:08.272Z,83.30
2018-02-17T06:35:35.924Z,83.30
2018-02-17T06:38:03.541Z,83.40
2018-02-17T06:40:31.986Z,83.40
2018-02-17T06:42:59.639Z,83.50
2018-02-17T06:45:27.299Z,83.50
2018-02-17T06:47:54.918Z,83.60
2018-02-17T06:50:23.419Z,83.50
2018-02-17T06:52:51.084Z,83.50
2018-02-17T06:55:19.774Z,83.60
2018-02-17T06:57:47.403Z,83.50
2018-02-17T07:00:15.030Z,83.50
2018-02-17T07:02:42.693Z,83.40
2018-02-17T07:05:10.375Z,83.40
2018-02-17T07:07:38.055Z,83.50
2018-02-17T07:10:05.705Z,83.70
2018-02-17T07:12:33.405Z,83.70
2018-02-17T07:15:01.042Z,83.70
2018-02-17T07:17:28.661Z,83.70
2018-02-17T07:19:57.080Z,83.70
2018-02-17T07:22:25.239Z,83.50
2018-02-17T07:24:52.921Z,83.70
2018-02-17T07:27:20.565Z,83.70
2018-02-17T07:29:48.975Z,83.90
2018-02-17T07:32:16.622Z,83.90
2018-02-17T07:34:44.285Z,84.00
2018-02-17T07:37:12.692Z,84.00
2018-02-17T07:39:40.313Z,84.00
2018-02-17T07:42:07.948Z,83.90
2018-02-17T07:44:35.625Z,84.00
2018-02-17T07:47:03.278Z,84.00
2018-02-17T07:49:30.898Z,84.00
2018-02-17T07:51:59.324Z,83.90
2018-02-17T07:54:26.945Z,83.90
2018-02-17T07:56:55.438Z,83.50
2018-02-17T07:59:23.855Z,83.40
2018-02-17T08:01:51.482Z,83.40
2018-02-17T08:04:19.951Z,83.40
2018-02-17T08:06:47.582Z,83.40
2018-02-17T08:09:15.247Z,83.50
2018-02-17T08:11:43.210Z,83.60
2018-02-17T08:14:11.635Z,83.60
2018-02-17T08:16:39.337Z,83.60
2018-02-17T08:19:06.999Z,83.60
2018-02-17T08:21:35.446Z,83.50
2018-02-17T08:24:03.061Z,83.50
2018-02-17T08:26:30.745Z,83.50
2018-02-17T08:28:58.402Z,83.50
2018-02-17T08:31:26.056Z,83.40
2018-02-17T08:33:53.700Z,83.80
2018-02-17T08:36:22.142Z,83.70
2018-02-17T08:38:50.455Z,83.10
2018-02-17T08:41:18.089Z,83.10
2018-02-17T08:43:45.836Z,83.10
2018-02-17T08:46:13.494Z,83.10
2018-02-17T08:48:41.936Z,83.10
2018-02-17T08:51:09.673Z,83.70
2018-02-17T08:53:37.367Z,83.10
2018-02-17T08:56:05.033Z,83.10
2018-02-17T08:58:32.722Z,83.20
2018-02-17T09:01:00.410Z,83.30
2018-02-17T09:03:29.010Z,83.20
2018-02-17T09:05:56.711Z,83.20
2018-02-17T09:08:24.405Z,83.10
2018-02-17T09:10:52.076Z,83.00
2018-02-17T09:13:19.747Z,83.00
2018-02-17T09:15:47.396Z,83.00
2018-02-17T09:18:15.087Z,83.10
2018-02-17T09:20:43.493Z,83.10
2018-02-17T09:23:11.174Z,83.10
2018-02-17T09:25:38.827Z,83.00
2018-02-17T09:28:07.261Z,82.80
2018-02-17T09:30:34.871Z,82.80
2018-02-17T09:33:03.294Z,82.80
2018-02-17T09:35:31.372Z,82.80
2018-02-17T09:37:59.000Z,82.90
2018-02-17T09:40:27.921Z,82.50
2018-02-17T09:42:55.572Z,82.50
2018-02-17T09:45:24.011Z,82.80
2018-02-17T09:47:51.624Z,82.80
2018-02-17T09:50:19.240Z,82.60
2018-02-17T09:52:46.917Z,82.50
2018-02-17T09:55:14.581Z,82.60
2018-02-17T09:57:42.250Z,82.70
2018-02-17T10:00:09.912Z,82.60
2018-02-17T10:02:37.591Z,82.60
2018-02-17T10:05:05.283Z,82.70
2018-02-17T10:07:33.687Z,82.80
2018-02-17T10:10:01.343Z,82.80
2018-02-17T10:12:28.999Z,82.70
2018-02-17T10:14:57.498Z,82.60
2018-02-17T10:17:25.152Z,82.60
2018-02-17T10:19:52.816Z,82.70
2018-02-17T10:22:26.247Z,83.10
2018-02-17T10:24:53.939Z,83.00
2018-02-17T10:27:21.557Z,82.50
2018-02-17T10:29:49.953Z,82.50
2018-02-17T10:32:17.602Z,82.40
2018-02-17T10:34:45.993Z,82.40
2018-02-17T10:37:14.425Z,82.50
2018-02-17T10:39:42.980Z,82.40
2018-02-17T10:42:10.668Z,82.50
2018-02-17T10:44:38.282Z,82.60
2018-02-17T10:47:06.678Z,82.80
2018-02-17T10:49:34.409Z,82.80
2018-02-17T10:52:02.125Z,83.50
2018-02-17T10:54:30.601Z,81.70
2018-02-17T10:56:58.331Z,81.70
2018-02-17T10:59:26.051Z,79.10
2018-02-17T11:01:53.721Z,79.20
2018-02-17T11:04:21.354Z,79.30
2018-02-17T11:06:49.825Z,80.20
2018-02-17T11:09:17.468Z,80.20
2018-02-17T11:11:45.172Z,80.50
2018-02-17T11:14:12.849Z,80.80
2018-02-17T11:16:41.255Z,81.20
2018-02-17T11:19:08.933Z,81.20
2018-02-17T11:21:36.583Z,81.30
2018-02-17T11:24:04.581Z,81.50
2018-02-17T11:26:32.248Z,81.70
2018-02-17T11:28:59.952Z,81.70
2018-02-17T11:31:27.714Z,82.00
2018-02-17T11:33:55.378Z,82.40
2018-02-17T11:36:23.049Z,82.00
2018-02-17T11:38:51.465Z,82.00
2018-02-17T11:41:19.933Z,82.00
2018-02-17T11:43:47.587Z,82.00
2018-02-17T11:46:15.310Z,82.00
2018-02-17T11:48:43.042Z,82.20
2018-02-17T11:51:10.707Z,82.10
2018-02-17T11:53:38.428Z,82.00
2018-02-17T11:56:06.081Z,82.00
2018-02-17T11:58:33.734Z,82.00
2018-02-17T12:01:02.271Z,82.20
2018-02-17T12:03:30.824Z,82.30
2018-02-17T12:06:01.448Z,82.40
2018-02-17T12:08:29.877Z,82.30
2018-02-17T12:10:57.514Z,82.30
2018-02-17T12:13:25.160Z,82.10
2018-02-17T12:15:53.671Z,82.30
2018-02-17T12:18:21.446Z,82.30
2018-02-17T12:20:49.145Z,82.40
2018-02-17T12:23:16.779Z,82.30
2018-02-17T12:25:44.500Z,82.20
2018-02-17T12:28:12.143Z,82.20
2018-02-17T12:30:39.812Z,82.10
2018-02-17T12:33:07.469Z,82.00
2018-02-17T12:35:35.094Z,82.00
2018-02-17T12:38:03.528Z,82.10
2018-02-17T12:40:31.296Z,82.00
2018-02-17T12:42:58.932Z,82.00
2018-02-17T12:45:26.598Z,81.90
2018-02-17T12:47:54.242Z,81.90
2018-02-17T12:50:22.673Z,82.10
2018-02-17T12:52:50.313Z,82.10
2018-02-17T12:55:17.972Z,82.00
2018-02-17T12:57:45.635Z,82.00
2018-02-17T13:00:14.072Z,82.30
2018-02-17T13:02:42.322Z,82.30
2018-02-17T13:05:09.988Z,82.40
2018-02-17T13:07:37.748Z,82.60
2018-02-17T13:10:05.368Z,82.70
2018-02-17T13:12:33.021Z,82.80
2018-02-17T13:15:00.660Z,82.80
2018-02-17T13:17:28.422Z,82.80
2018-02-17T13:19:56.111Z,82.80
2018-02-17T13:22:23.779Z,82.80
2018-02-17T13:24:51.457Z,82.80
2018-02-17T13:27:19.164Z,82.80
2018-02-17T13:29:47.594Z,83.80
2018-02-17T13:32:15.223Z,83.70
2018-02-17T13:34:42.896Z,83.30
2018-02-17T13:37:10.566Z,82.80
2018-02-17T13:39:39.036Z,82.70
2018-02-17T13:42:07.454Z,82.80
2018-02-17T13:44:35.087Z,82.80
2018-02-17T13:47:03.499Z,82.50
2018-02-17T13:49:31.151Z,82.50
2018-02-17T13:51:59.696Z,81.90
2018-02-17T13:54:27.360Z,81.90
2018-02-17T13:56:55.004Z,82.10
2018-02-17T13:59:22.682Z,82.20
2018-02-17T14:01:50.340Z,82.40
2018-02-17T14:04:18.226Z,82.50
2018-02-17T14:06:45.896Z,82.50
2018-02-17T14:09:13.592Z,83.10
2018-02-17T14:11:41.217Z,82.60
2018-02-17T14:14:08.933Z,82.70
2018-02-17T14:16:37.383Z,82.80
2018-02-17T14:19:05.007Z,82.80
2018-02-17T14:21:32.805Z,82.80
2018-02-17T14:24:00.447Z,82.70
2018-02-17T14:26:28.113Z,82.50
2018-02-17T14:28:55.775Z,82.40
2018-02-17T14:31:23.436Z,82.20
2018-02-17T14:33:51.171Z,82.10
2018-02-17T14:36:19.330Z,82.10
2018-02-17T14:38:46.991Z,82.00
2018-02-17T14:41:15.443Z,82.30
2018-02-17T14:43:43.320Z,81.70
2018-02-17T14:46:11.027Z,81.50
2018-02-17T14:48:38.686Z,81.30
2018-02-17T14:51:06.355Z,81.10
2018-02-17T14:53:34.092Z,81.20
2018-02-17T14:56:01.744Z,81.30
2018-02-17T14:58:29.415Z,81.10
2018-02-17T15:00:57.935Z,81.20
2018-02-17T15:03:25.581Z,81.20
2018-02-17T15:05:53.299Z,81.10
2018-02-17T15:08:21.045Z,81.00
2018-02-17T15:10:48.794Z,81.00
2018-02-17T15:13:16.425Z,81.00
2018-02-17T15:15:44.090Z,81.00
2018-02-17T15:18:12.520Z,81.00
2018-02-17T15:20:40.154Z,81.00
2018-02-17T15:23:08.594Z,81.10
2018-02-17T15:25:36.249Z,81.10
2018-02-17T15:28:03.915Z,81.00
2018-02-17T15:30:31.539Z,81.10
2018-02-17T15:33:00.326Z,81.00
2018-02-17T15:35:28.790Z,81.10
2018-02-17T15:37:57.211Z,81.10
2018-02-17T15:40:24.994Z,81.20
2018-02-17T15:42:52.666Z,81.00
2018-02-17T15:45:21.102Z,80.80
2018-02-17T15:47:48.765Z,80.80
2018-02-17T15:50:16.410Z,80.90
2018-02-17T15:52:44.087Z,80.90
2018-02-17T15:55:11.734Z,80.80
2018-02-17T15:57:39.496Z,80.90
2018-02-17T16:00:07.168Z,80.90
2018-02-17T16:02:34.828Z,81.00
2018-02-17T16:05:02.706Z,81.10
2018-02-17T16:07:30.806Z,81.20
2018-02-17T16:09:58.600Z,81.30
2018-02-17T16:12:26.305Z,81.90
2018-02-17T16:14:53.991Z,81.10
2018-02-17T16:17:21.672Z,81.50
2018-02-17T16:19:49.435Z,81.50
2018-02-17T16:22:17.069Z,81.50
2018-02-17T16:24:44.753Z,81.50
2018-02-17T16:27:12.379Z,81.50
2018-02-17T16:29:40.831Z,81.60
2018-02-17T16:32:08.547Z,81.50
2018-02-17T16:34:36.196Z,81.60
2018-02-17T16:37:04.608Z,81.80
2018-02-17T16:39:32.267Z,81.80
2018-02-17T16:41:59.939Z,81.50
2018-02-17T16:44:27.579Z,81.50
2018-02-17T16:46:56.489Z,82.10
2018-02-17T16:49:24.897Z,81.40
2018-02-17T16:51:52.575Z,81.50
2018-02-17T16:54:20.322Z,81.50
2018-02-17T16:56:48.043Z,81.50
2018-02-17T16:59:15.721Z,81.50
2018-02-17T17:01:43.404Z,81.60
2018-02-17T17:04:11.848Z,81.40
2018-02-17T17:06:39.553Z,81.40
2018-02-17T17:09:08.000Z,81.90
2018-02-17T17:11:35.658Z,81.50
2018-02-17T17:14:03.296Z,81.60
2018-02-17T17:16:31.005Z,81.60
2018-02-17T17:18:58.687Z,81.60
2018-02-17T17:21:26.501Z,81.60
2018-02-17T17:23:54.148Z,82.20
2018-02-17T17:26:22.548Z,81.70
2018-02-17T17:28:50.286Z,81.60
2018-02-17T17:31:17.933Z,81.60
2018-02-17T17:33:45.595Z,81.70
2018-02-17T17:36:13.205Z,81.70
2018-02-17T17:38:41.674Z,81.80
2018-02-17T17:41:09.346Z,81.70
2018-02-17T17:43:37.809Z,81.60
2018-02-17T17:46:05.444Z,81.60
2018-02-17T17:48:33.086Z,81.50
2018-02-17T17:51:00.748Z,81.40
2018-02-17T17:53:29.149Z,83.50
2018-02-17T17:55:56.804Z,83.50
2018-02-17T17:58:25.237Z,82.30
2018-02-17T18:00:58.653Z,82.30
2018-02-17T18:03:26.285Z,81.70
2018-02-17T18:05:54.067Z,81.40
2018-02-17T18:08:21.763Z,81.20
2018-02-17T18:10:49.399Z,81.30
2018-02-17T18:13:17.155Z,81.50
2018-02-17T18:15:44.825Z,81.50
2018-02-17T18:18:12.577Z,81.50
2018-02-17T18:20:40.242Z,81.50
2018-02-17T18:23:07.908Z,81.50
2018-02-17T18:25:35.627Z,81.50
2018-02-17T18:28:03.471Z,81.50
2018-02-17T18:30:31.128Z,81.40
2018-02-17T18:32:58.835Z,85.30
2018-02-17T18:35:26.774Z,85.70
2018-02-17T18:37:54.409Z,84.30
2018-02-17T18:40:22.873Z,78.50
2018-02-17T18:42:52.268Z,75.90
2018-02-17T18:45:19.947Z,75.90
2018-02-17T18:47:49.085Z,74.80
2018-02-17T18:50:17.534Z,74.60
2018-02-17T18:52:45.271Z,72.80
2018-02-17T18:55:12.950Z,71.70
2018-02-17T18:57:40.897Z,72.70
2018-02-17T19:00:08.628Z,74.00
2018-02-17T19:02:36.325Z,75.30
2018-02-17T19:05:03.969Z,76.10
2018-02-17T19:07:31.687Z,76.80
2018-02-17T19:09:59.349Z,77.50
2018-02-17T19:12:27.123Z,78.10
2018-02-17T19:14:54.789Z,78.40
2018-02-17T19:17:22.488Z,78.70
2018-02-17T19:19:50.942Z,79.30
2018-02-17T19:22:18.603Z,79.30
2018-02-17T19:24:46.296Z,79.40
2018-02-17T19:27:13.961Z,80.10
2018-02-17T19:29:41.597Z,79.80
2018-02-17T19:32:09.312Z,80.00
2018-02-17T19:34:37.807Z,80.20
2018-02-17T19:37:05.504Z,80.20
2018-02-17T19:39:33.233Z,80.00
2018-02-17T19:42:01.732Z,80.00
2018-02-17T19:44:30.193Z,80.00
2018-02-17T19:46:57.910Z,80.00
2018-02-17T19:49:26.201Z,80.10
2018-02-17T19:51:54.770Z,80.00
2018-02-17T19:54:23.454Z,80.70
2018-02-17T19:56:52.100Z,80.20
2018-02-17T19:59:19.835Z,80.20
2018-02-17T20:01:47.599Z,80.30
2018-02-17T20:04:15.342Z,80.20
2018-02-17T20:06:43.071Z,80.20
2018-02-17T20:09:10.841Z,80.10
2018-02-17T20:11:38.539Z,80.10
2018-02-17T20:14:07.166Z,80.70
2018-02-17T20:16:34.918Z,80.20
2018-02-17T20:19:02.700Z,80.10
2018-02-17T20:21:30.728Z,80.10
2018-02-17T20:23:59.304Z,80.30
2018-02-17T20:26:27.052Z,80.30
2018-02-17T20:28:54.840Z,80.50
2018-02-17T20:31:23.404Z,80.40
2018-02-17T20:33:51.171Z,80.40
2018-02-17T20:36:19.847Z,80.50
2018-02-17T20:38:47.530Z,80.50
2018-02-17T20:41:15.837Z,80.50
2018-02-17T20:43:43.580Z,80.60
2018-02-17T20:46:11.290Z,80.70
2018-02-17T20:48:39.834Z,80.50
2018-02-17T20:51:07.513Z,80.50
2018-02-17T20:53:36.191Z,80.50
2018-02-17T20:56:03.929Z,80.50
2018-02-17T20:58:32.461Z,80.40
2018-02-17T21:01:00.228Z,80.40
2018-02-17T21:03:27.966Z,80.30
2018-02-17T21:05:55.673Z,80.20
2018-02-17T21:08:23.423Z,80.30
2018-02-17T21:10:51.125Z,80.40
2018-02-17T21:13:18.900Z,80.50
2018-02-17T21:15:47.394Z,80.70
2018-02-17T21:18:16.684Z,80.60
2018-02-17T21:20:44.473Z,80.50
2018-02-17T21:23:13.082Z,80.30
2018-02-17T21:25:40.766Z,80.20
2018-02-17T21:28:09.321Z,80.20
2018-02-17T21:30:38.934Z,80.30
2018-02-17T21:33:07.408Z,80.40
2018-02-17T21:35:35.137Z,80.90
2018-02-17T21:38:02.886Z,80.90
2018-02-17T21:40:30.602Z,80.40
2018-02-17T21:42:58.354Z,80.50
2018-02-17T21:45:26.088Z,80.40
2018-02-17T21:47:53.839Z,80.50
2018-02-17T21:50:21.539Z,80.50
2018-02-17T21:52:49.264Z,80.50
2018-02-17T21:55:17.762Z,80.50
2018-02-17T21:57:46.294Z,80.60
2018-02-17T22:00:14.090Z,80.50
2018-02-17T22:02:42.564Z,80.40
2018-02-17T22:05:10.221Z,80.40
2018-02-17T22:07:37.964Z,80.40
2018-02-17T22:10:05.593Z,80.40
2018-02-17T22:12:34.109Z,80.50
2018-02-17T22:15:02.526Z,80.60
2018-02-17T22:17:30.239Z,80.60
2018-02-17T22:19:58.643Z,80.50
2018-02-17T22:22:26.267Z,80.50
2018-02-17T22:24:54.537Z,80.60
2018-02-17T22:27:22.193Z,80.70
2018-02-17T22:29:49.995Z,80.80
2018-02-17T22:32:17.657Z,80.70
2018-02-17T22:34:45.299Z,80.80
2018-02-17T22:37:12.937Z,80.80
2018-02-17T22:39:40.569Z,80.80
2018-02-17T22:42:08.240Z,80.70
2018-02-17T22:44:36.627Z,80.80
2018-02-17T22:47:05.067Z,80.80
2018-02-17T22:49:32.714Z,80.80
2018-02-17T22:52:00.372Z,80.70
2018-02-17T22:54:28.016Z,80.70
2018-02-17T22:56:57.357Z,80.90
2018-02-17T22:59:25.022Z,80.90
2018-02-17T23:01:53.200Z,80.80
2018-02-17T23:04:21.201Z,80.80
2018-02-17T23:06:48.848Z,80.70
2018-02-17T23:09:16.473Z,80.60
2018-02-17T23:11:44.897Z,80.50
2018-02-17T23:14:12.540Z,80.50
2018-02-17T23:16:40.206Z,80.50
2018-02-17T23:19:08.633Z,80.60
2018-02-17T23:21:36.279Z,80.60
2018-02-17T23:24:03.925Z,80.50
2018-02-17T23:26:31.697Z,80.50
2018-02-17T23:28:59.371Z,80.50
2018-02-17T23:31:26.993Z,80.50
2018-02-17T23:33:54.619Z,80.50
2018-02-17T23:36:22.288Z,80.40
2018-02-17T23:38:50.042Z,80.50
2018-02-17T23:41:17.699Z,80.30
2018-02-17T23:43:45.327Z,80.30
2018-02-17T23:46:12.973Z,80.40
2018-02-17T23:48:40.605Z,80.40
2018-02-17T23:51:08.250Z,80.30
2018-02-17T23:53:36.677Z,80.50
2018-02-17T23:56:04.303Z,80.40
2018-02-17T23:58:32.725Z,80.60
